Thompson, ND (58278)

9:30 AM CST on January 31, 2015 (GMT -0600)
CWOP Grand Forks | Change Station
CLOSE
Current Station
Personal Weather Station
Location: Grand Forks, ND
Elevation: 840 ft
Nearby Weather Stations

Elev 840 ft 47.89 °N, 97.08 °W | Updated 40 seconds ago

Mostly Cloudy
Mostly Cloudy
1.9 °F
Feels Like -13 °F
N
9.8
Wind Variable Wind from North
Gusts 17.4 mph

Today
High -- | Low -- °F
--% Chance of Precip.
Yesterday
High -- | Low -- °F
Precip. -- in
7:56 AM 5:27 PM
Waxing Gibbous, 90% visible
Pressure 30.43 in
Visibility 10.0 miles
Clouds Mostly Cloudy 9000 ft
Mostly Cloudy 11000 ft
Mostly Cloudy 25000 ft
Windchill -13 °F
Dew Point -5 °F
Humidity 73%
Rainfall 0.00 in
Snow Depth Not available.
UV 0 out of 12
Pollen .10 out of 12
Air Quality Not available.
Flu Activity Not available.
METAR KGFK 311453Z 36016KT 10SM BKN090 BKN110 BKN250 M16/M20 A3043

More Conditions Fewer Conditions

Pressure 30.43 in
Visibility 10.0 miles
Clouds Mostly Cloudy 9000 ft
Mostly Cloudy 11000 ft
Mostly Cloudy 25000 ft
Windchill -13 °F
Dew Point -5 °F
Humidity 73%
Rainfall 0.00 in
Snow Depth Not available.
UV 0 out of 12
Pollen .10 out of 12
Air Quality Not available.
Flu Activity Not available.
METAR KGFK 311453Z 36016KT 10SM BKN090 BKN110 BKN250 M16/M20 A3043

More Conditions Fewer Conditions

10-Day Weather Forecast

Almanac

Astronomy

Jan. 31, 2015 Rise Set
Actual Time
Civil Twilight
Nautical Twilight
Astronomical Twilight
Moon
Length of Visible Light
Length of Day
Tomorrow will be .
, % of the Moon is Illuminated

Today's Extremes

State Highs State Lows

Community

WunderPhotos

Upload Photos

1,792,094 photos uploaded!

WunderBlogs® & News

Nearby

Air Quality

  Air Quality AQ Index Pollutant
Not available.

Snow Depth

Station Depth Elevation

Earthquake Activity

City Distance Mag. Time & Date
Minimum magnitude displayed is 2.5.

Coastal Water Temperatures

Place Temperature

Nearby Weather Stations